Tenino, Washington
Current Conditions -  °F | °C
As of 7:54 PM on Saturday 25 Oct 2014 (Local Time) from KOLM Reporting Station
Light Rain Light Rain  
Wind Chill: 52°   Ceiling: 3300
Heat Index: 52°   Visibility: 9mi
Dew Point: 48°   Wind: 15mph
Humidity: 86%   Direction: 220°SW
Pressure: 29.56"   Gusts: 26mph
Location:  46.86°N, 122.85°W
Report Text: KOLM 260254Z 22013G23KT 9SM -RA FEW025 BKN033 OVC065 11/09 A2956 RMK AO2 PK WND 22028/0218 PRESRR SLP008 P0005 60028 T01110089 51085
Loading
Personal Weather Stations






























Interactive Weather Map
Tropical Storm Tracking
New forecast layout! Learn more

10-Day Weather Forecast

Advertisements
Track Severe Weather on mobile